Anzahl Datensätze: 96
min. Temperatur: 0.0 °C
max. Temperatur: 22.8 °C
max. Windgeschwindigkeit: 22.7 km/h
Niederschlagsumme: 0.8 mm
| Datum |
Zeit |
Temp °C |
Feuchte % |
Taupunkt °C |
Luftdruck hPa |
Wind km/h |
Windrichtung |
Strahlung w/m² |
Niederschlag mm |
|---|---|---|---|---|---|---|---|---|---|
| 20.06.2024 | 00:01 | 14.9 | 84 | 12.2 | 1019.0 | 0.0 | N | 0 | 0.0 |
| 20.06.2024 | 00:16 | 14.7 | 85 | 12.2 | 1019.1 | 0.0 | N | 0 | 0.0 |
| 20.06.2024 | 00:31 | 14.6 | 85 | 12.1 | 1019.0 | 4.7 | N | 0 | 0.0 |
| 20.06.2024 | 00:46 | 14.6 | 85 | 12.1 | 1019.2 | 0.0 | N | 0 | 0.0 |
| 20.06.2024 | 01:01 | 14.4 | 85 | 11.9 | 1019.5 | 0.0 | N | 0 | 0.0 |
| 20.06.2024 | 01:16 | 14.4 | 86 | 12.1 | 1019.3 | 6.5 | N | 0 | 0.0 |
| 20.06.2024 | 01:31 | 14.6 | 86 | 12.3 | 1019.2 | 1.4 | N | 0 | 0.0 |
| 20.06.2024 | 01:46 | 14.4 | 86 | 12.1 | 1019.2 | 0.0 | N | 0 | 0.0 |
| 20.06.2024 | 02:01 | 14.2 | 87 | 12.1 | 1019.0 | 3.2 | N | 0 | 0.0 |
| 20.06.2024 | 02:16 | 14.1 | 87 | 12.0 | 1019.3 | 1.4 | N | 0 | 0.0 |
| 20.06.2024 | 02:31 | 14.0 | 87 | 11.9 | 1019.2 | 0.0 | N | 0 | 0.0 |
| 20.06.2024 | 02:46 | 13.8 | 88 | 11.8 | 1019.4 | 0.0 | N | 0 | 0.0 |
| 20.06.2024 | 03:01 | 13.7 | 88 | 11.7 | 1019.5 | 0.0 | N | 0 | 0.0 |
| 20.06.2024 | 03:16 | 13.6 | 88 | 11.6 | 1019.4 | 0.0 | N | 0 | 0.0 |
| 20.06.2024 | 03:31 | 13.3 | 89 | 11.5 | 1019.3 | 0.0 | N | 0 | 0.0 |
| 20.06.2024 | 03:46 | 13.3 | 90 | 11.7 | 1017.6 | 4.7 | N | 0 | 0.0 |
| 20.06.2024 | 04:01 | 13.6 | 90 | 12.0 | 1017.4 | 3.2 | N | 0 | 0.0 |
| 20.06.2024 | 04:16 | 13.7 | 90 | 12.1 | 1017.3 | 3.2 | N | 0 | 0.0 |
| 20.06.2024 | 04:31 | 13.6 | 90 | 12.0 | 1017.9 | 0.0 | N | 0 | 0.0 |
| 20.06.2024 | 04:46 | 13.6 | 90 | 12.0 | 1018.6 | 0.0 | N | 0 | 0.0 |
| 20.06.2024 | 05:01 | 13.4 | 90 | 11.8 | 1019.3 | 0.0 | N | 0 | 0.0 |
| 20.06.2024 | 05:17 | 13.4 | 90 | 11.8 | 1019.1 | 0.0 | N | 0 | 0.0 |
| 20.06.2024 | 05:32 | 13.4 | 91 | 12.0 | 1018.3 | 1.4 | N | 0 | 0.0 |
| 20.06.2024 | 05:47 | 13.4 | 91 | 12.0 | 1017.6 | 4.7 | N | 7 | 0.0 |
| 20.06.2024 | 06:02 | 13.5 | 91 | 12.1 | 1017.4 | 7.9 | N | 9 | 0.0 |
| 20.06.2024 | 06:17 | 13.7 | 90 | 12.1 | 1017.0 | 4.7 | N | 11 | 0.0 |
| 20.06.2024 | 06:32 | 13.8 | 89 | 12.0 | 1017.2 | 4.7 | N | 21 | 0.0 |
| 20.06.2024 | 06:47 | 13.9 | 88 | 11.9 | 1017.0 | 4.7 | N | 44 | 0.0 |
| 20.06.2024 | 07:02 | 14.2 | 87 | 12.1 | 1017.4 | 4.7 | N | 58 | 0.0 |
| 20.06.2024 | 07:17 | 14.3 | 86 | 12.0 | 1017.0 | 3.2 | N | 54 | 0.0 |
| 20.06.2024 | 07:32 | 14.4 | 86 | 12.1 | 1017.1 | 4.7 | N | 60 | 0.0 |
| 20.06.2024 | 07:47 | 14.5 | 86 | 12.2 | 1017.2 | 1.4 | N | 91 | 0.0 |
| 20.06.2024 | 08:02 | 14.7 | 86 | 12.4 | 1017.4 | 1.4 | N | 67 | 0.0 |
| 20.06.2024 | 08:17 | 14.8 | 86 | 12.5 | 1017.0 | 6.5 | N | 135 | 0.0 |
| 20.06.2024 | 08:32 | 14.9 | 85 | 12.4 | 1016.9 | 3.2 | N | 153 | 0.0 |
| 20.06.2024 | 08:47 | 15.1 | 85 | 12.6 | 1016.9 | 4.7 | N | 91 | 0.0 |
| 20.06.2024 | 09:02 | 15.1 | 85 | 12.6 | 1016.8 | 3.2 | N | 211 | 0.0 |
| 20.06.2024 | 09:17 | 15.4 | 85 | 12.9 | 1017.1 | 3.2 | N | 171 | 0.0 |
| 20.06.2024 | 09:32 | 0.0 | 0 | 0.0 | 0.0 | 0.0 | N | 0 | 0.0 |
| 20.06.2024 | 09:47 | 16.3 | 84 | 13.6 | 1017.0 | 4.7 | N | 193 | 0.0 |
| 20.06.2024 | 10:02 | 16.4 | 83 | 13.5 | 1016.7 | 1.4 | N | 188 | 0.0 |
| 20.06.2024 | 10:17 | 16.4 | 83 | 13.5 | 1016.8 | 4.7 | N | 195 | 0.0 |
| 20.06.2024 | 10:32 | 16.8 | 83 | 13.9 | 1016.3 | 3.2 | N | 320 | 0.0 |
| 20.06.2024 | 10:47 | 17.4 | 82 | 14.3 | 1015.7 | 4.7 | N | 397 | 0.0 |
| 20.06.2024 | 11:02 | 17.9 | 80 | 14.4 | 1015.9 | 9.7 | N | 287 | 0.0 |
| 20.06.2024 | 11:17 | 18.0 | 82 | 14.9 | 1016.6 | 1.4 | N | 292 | 0.0 |
| 20.06.2024 | 11:32 | 18.5 | 81 | 15.2 | 1016.7 | 11.2 | N | 244 | 0.0 |
| 20.06.2024 | 11:47 | 18.6 | 81 | 15.3 | 1016.8 | 7.9 | N | 169 | 0.0 |
| 20.06.2024 | 12:02 | 18.4 | 81 | 15.1 | 1016.5 | 6.5 | N | 162 | 0.0 |
| 20.06.2024 | 12:17 | 18.8 | 82 | 15.7 | 1016.7 | 6.5 | N | 318 | 0.0 |
| 20.06.2024 | 12:32 | 19.2 | 81 | 15.9 | 1016.7 | 6.5 | N | 236 | 0.0 |
| 20.06.2024 | 12:47 | 19.2 | 81 | 15.9 | 1016.6 | 3.2 | N | 192 | 0.0 |
| 20.06.2024 | 13:03 | 19.3 | 81 | 16.0 | 1016.8 | 3.2 | N | 149 | 0.0 |
| 20.06.2024 | 13:18 | 19.3 | 82 | 16.1 | 1016.5 | 3.2 | N | 318 | 0.0 |
| 20.06.2024 | 13:33 | 19.9 | 82 | 16.7 | 1016.0 | 4.7 | N | 438 | 0.0 |
| 20.06.2024 | 13:48 | 20.4 | 81 | 17.0 | 1016.1 | 0.0 | N | 346 | 0.0 |
| 20.06.2024 | 14:03 | 20.7 | 80 | 17.1 | 1016.2 | 0.0 | N | 388 | 0.0 |
| 20.06.2024 | 14:18 | 21.3 | 80 | 17.7 | 1016.1 | 1.4 | N | 241 | 0.0 |
| 20.06.2024 | 14:33 | 21.2 | 79 | 17.4 | 1016.1 | 3.2 | N | 178 | 0.0 |
| 20.06.2024 | 14:48 | 21.0 | 80 | 17.4 | 1015.7 | 1.4 | N | 186 | 0.0 |
| 20.06.2024 | 15:03 | 21.3 | 81 | 17.9 | 1015.5 | 1.4 | N | 401 | 0.0 |
| 20.06.2024 | 15:18 | 22.2 | 80 | 18.6 | 1015.6 | 3.2 | N | 443 | 0.0 |
| 20.06.2024 | 15:33 | 22.3 | 78 | 18.3 | 1015.6 | 6.5 | N | 127 | 0.0 |
| 20.06.2024 | 15:48 | 22.2 | 79 | 18.4 | 1015.6 | 6.5 | N | 207 | 0.0 |
| 20.06.2024 | 16:03 | 22.0 | 79 | 18.2 | 1015.5 | 1.4 | N | 127 | 0.0 |
| 20.06.2024 | 16:18 | 22.2 | 80 | 18.6 | 1015.3 | 0.0 | N | 227 | 0.0 |
| 20.06.2024 | 16:33 | 22.3 | 80 | 18.7 | 1015.2 | 1.4 | N | 178 | 0.0 |
| 20.06.2024 | 16:48 | 22.3 | 80 | 18.7 | 1015.0 | 0.0 | N | 91 | 0.0 |
| 20.06.2024 | 17:03 | 22.2 | 80 | 18.6 | 1014.9 | 0.0 | N | 109 | 0.0 |
| 20.06.2024 | 17:18 | 22.3 | 81 | 18.9 | 1014.7 | 0.0 | N | 239 | 0.0 |
| 20.06.2024 | 17:33 | 22.7 | 80 | 19.1 | 1014.6 | 0.0 | N | 190 | 0.0 |
| 20.06.2024 | 17:48 | 22.8 | 80 | 19.2 | 1014.7 | 1.4 | N | 163 | 0.0 |
| 20.06.2024 | 18:03 | 22.6 | 81 | 19.2 | 1014.5 | 0.0 | N | 181 | 0.0 |
| 20.06.2024 | 18:18 | 22.3 | 83 | 19.3 | 1014.4 | 1.4 | N | 134 | 0.2 |
| 20.06.2024 | 18:33 | 22.0 | 85 | 19.4 | 1014.2 | 1.4 | N | 246 | 0.6 |
| 20.06.2024 | 18:48 | 21.7 | 86 | 19.3 | 1014.2 | 3.2 | N | 176 | 0.8 |
| 20.06.2024 | 19:03 | 21.6 | 87 | 19.3 | 1014.4 | 1.4 | N | 123 | 0.8 |
| 20.06.2024 | 19:18 | 21.4 | 87 | 19.1 | 1014.5 | 0.0 | N | 77 | 0.8 |
| 20.06.2024 | 19:33 | 21.4 | 87 | 19.1 | 1014.5 | 1.4 | N | 77 | 0.8 |
| 20.06.2024 | 19:48 | 21.2 | 88 | 19.1 | 1014.4 | 3.2 | N | 67 | 0.8 |
| 20.06.2024 | 20:03 | 20.9 | 89 | 19.0 | 1013.9 | 3.2 | N | 62 | 0.8 |
| 20.06.2024 | 20:18 | 20.7 | 89 | 18.8 | 1014.0 | 1.4 | N | 42 | 0.8 |
| 20.06.2024 | 20:33 | 20.4 | 89 | 18.5 | 1014.0 | 0.0 | N | 47 | 0.8 |
| 20.06.2024 | 20:48 | 20.4 | 89 | 18.5 | 1014.2 | 1.4 | N | 46 | 0.8 |
| 20.06.2024 | 21:03 | 20.5 | 89 | 18.6 | 1014.1 | 0.0 | N | 32 | 0.8 |
| 20.06.2024 | 21:18 | 20.3 | 89 | 18.4 | 1014.0 | 0.0 | N | 23 | 0.8 |
| 20.06.2024 | 21:33 | 20.2 | 90 | 18.5 | 1013.6 | 0.0 | N | 9 | 0.8 |
| 20.06.2024 | 21:48 | 19.9 | 90 | 18.2 | 1013.6 | 0.0 | N | 0 | 0.8 |
| 20.06.2024 | 22:03 | 19.6 | 90 | 17.9 | 1014.0 | 0.0 | N | 0 | 0.8 |
| 20.06.2024 | 22:18 | 19.3 | 90 | 17.6 | 1013.7 | 0.0 | N | 0 | 0.8 |
| 20.06.2024 | 22:34 | 19.1 | 91 | 17.6 | 1014.0 | 0.0 | N | 0 | 0.8 |
| 20.06.2024 | 22:49 | 19.1 | 91 | 17.6 | 1014.4 | 1.4 | N | 0 | 0.8 |
| 20.06.2024 | 23:04 | 19.2 | 91 | 17.7 | 1014.5 | 0.0 | N | 0 | 0.8 |
| 20.06.2024 | 23:19 | 19.2 | 91 | 17.7 | 1014.3 | 1.4 | N | 0 | 0.8 |
| 20.06.2024 | 23:34 | 19.2 | 91 | 17.7 | 1014.1 | 0.0 | N | 0 | 0.8 |
| 20.06.2024 | 23:49 | 19.2 | 91 | 17.7 | 1014.1 | 0.0 | N | 0 | 0.8 |